Terminal Aerodrome Forecast
Issued by NWS

Home | Current Version | Previous Version | Text Only | Print | Product List | Glossary On
Versions: 1 2 3 4 5 6 7 8 9 10 11 12 13 14 15 16 17 18 19 20
000
FTUS44 KLIX 261139
TAFMSY
TAF
KMSY 261139Z 2612/2712 34005KT 5SM RA SCT020 OVC080
     FM261400 28007KT P6SM OVC050
     FM261800 16011KT P6SM VCTS SCT030CB BKN070
     FM270000 16009KT P6SM SCT050 BKN140
     FM270900 14004KT P6SM BKN025=

USA.gov is the U.S. government's official web portal to all federal, state and local government web resources and services.